sensor_id;sensor_type;location;lat;lon;timestamp;pressure;altitude;pressure_sealevel;temperature;humidity
73645;BME280;61940;42.136;24.534;2022-08-04T00:01:45;99491.48;;;26.70;43.78
73645;BME280;61940;42.136;24.534;2022-08-04T00:04:12;99487.87;;;26.59;44.11
73645;BME280;61940;42.136;24.534;2022-08-04T00:06:42;99490.48;;;26.59;44.05
73645;BME280;61940;42.136;24.534;2022-08-04T00:09:08;99488.48;;;26.56;43.92
73645;BME280;61940;42.136;24.534;2022-08-04T00:11:32;99493.11;;;26.55;43.86
73645;BME280;61940;42.136;24.534;2022-08-04T00:14:02;99501.73;;;26.47;44.37
73645;BME280;61940;42.136;24.534;2022-08-04T00:16:28;99503.14;;;26.35;44.36
73645;BME280;61940;42.136;24.534;2022-08-04T00:18:56;99507.77;;;26.35;44.58
73645;BME280;61940;42.136;24.534;2022-08-04T00:21:21;99507.95;;;26.38;44.27
73645;BME280;61940;42.136;24.534;2022-08-04T00:23:47;99500.73;;;26.44;44.13
73645;BME280;61940;42.136;24.534;2022-08-04T00:26:14;99505.16;;;26.45;44.08
73645;BME280;61940;42.136;24.534;2022-08-04T00:28:39;99513.59;;;26.45;44.28
73645;BME280;61940;42.136;24.534;2022-08-04T00:31:06;99510.77;;;26.38;44.73
73645;BME280;61940;42.136;24.534;2022-08-04T00:33:32;99507.34;;;26.24;45.04
73645;BME280;61940;42.136;24.534;2022-08-04T00:35:59;99507.94;;;26.18;45.10
73645;BME280;61940;42.136;24.534;2022-08-04T00:38:25;99510.09;;;26.13;45.08
73645;BME280;61940;42.136;24.534;2022-08-04T00:40:56;99513.09;;;26.09;45.24
73645;BME280;61940;42.136;24.534;2022-08-04T00:43:20;99513.30;;;26.05;45.30
73645;BME280;61940;42.136;24.534;2022-08-04T00:51:05;99515.48;;;26.00;45.45
73645;BME280;61940;42.136;24.534;2022-08-04T00:53:33;99515.67;;;25.94;45.56
73645;BME280;61940;42.136;24.534;2022-08-04T00:58:33;99511.03;;;25.87;45.73
73645;BME280;61940;42.136;24.534;2022-08-04T01:00:59;99514.66;;;25.96;45.37
73645;BME280;61940;42.136;24.534;2022-08-04T01:03:33;99518.48;;;25.98;45.53
73645;BME280;61940;42.136;24.534;2022-08-04T01:05:57;99514.30;;;26.05;45.19
73645;BME280;61940;42.136;24.534;2022-08-04T01:08:30;99514.70;;;26.05;45.16
73645;BME280;61940;42.136;24.534;2022-08-04T01:11:11;99512.69;;;26.02;45.27
73645;BME280;61940;42.136;24.534;2022-08-04T01:13:42;99507.26;;;26.03;45.07
73645;BME280;61940;42.136;24.534;2022-08-04T01:16:05;99512.09;;;26.04;45.15
73645;BME280;61940;42.136;24.534;2022-08-04T01:18:41;99506.27;;;26.07;45.14
73645;BME280;61940;42.136;24.534;2022-08-04T01:23:37;99509.88;;;25.98;45.20
73645;BME280;61940;42.136;24.534;2022-08-04T01:31:20;99522.07;;;25.93;45.35
73645;BME280;61940;42.136;24.534;2022-08-04T01:33:44;99519.47;;;25.90;45.44
73645;BME280;61940;42.136;24.534;2022-08-04T01:36:11;99524.28;;;25.93;45.41
73645;BME280;61940;42.136;24.534;2022-08-04T01:38:39;99518.27;;;25.91;45.20
73645;BME280;61940;42.136;24.534;2022-08-04T01:41:06;99517.86;;;25.93;45.18
73645;BME280;61940;42.136;24.534;2022-08-04T01:43:32;99513.86;;;25.94;45.32
73645;BME280;61940;42.136;24.534;2022-08-04T01:45:58;99509.83;;;25.90;45.30
73645;BME280;61940;42.136;24.534;2022-08-04T01:48:24;99511.05;;;25.90;45.20
73645;BME280;61940;42.136;24.534;2022-08-04T01:50:51;99522.89;;;25.92;45.16
73645;BME280;61940;42.136;24.534;2022-08-04T01:53:17;99521.27;;;25.91;45.37
73645;BME280;61940;42.136;24.534;2022-08-04T01:55:43;99518.25;;;25.90;45.26
73645;BME280;61940;42.136;24.534;2022-08-04T01:58:09;99521.25;;;25.89;45.25
73645;BME280;61940;42.136;24.534;2022-08-04T02:00:35;99531.69;;;25.86;45.33
73645;BME280;61940;42.136;24.534;2022-08-04T02:03:02;99524.85;;;25.86;45.35
73645;BME280;61940;42.136;24.534;2022-08-04T02:05:28;99528.64;;;25.77;45.63
73645;BME280;61940;42.136;24.534;2022-08-04T02:09:02;99519.86;;;25.82;45.36
73645;BME280;61940;42.136;24.534;2022-08-04T02:13:23;99522.81;;;25.76;45.75
73645;BME280;61940;42.136;24.534;2022-08-04T02:16:23;99522.78;;;25.62;46.02
73645;BME280;61940;42.136;24.534;2022-08-04T02:18:30;99522.78;;;25.62;45.92
73645;BME280;61940;42.136;24.534;2022-08-04T02:20:58;99521.15;;;25.57;46.23
73645;BME280;61940;42.136;24.534;2022-08-04T02:23:28;99520.27;;;25.49;46.30
73645;BME280;61940;42.136;24.534;2022-08-04T02:25:55;99525.48;;;25.49;46.26
73645;BME280;61940;42.136;24.534;2022-08-04T02:28:23;99524.73;;;25.50;46.19
73645;BME280;61940;42.136;24.534;2022-08-04T02:30:58;99534.30;;;25.49;46.09
73645;BME280;61940;42.136;24.534;2022-08-04T02:33:30;99531.76;;;25.54;45.94
73645;BME280;61940;42.136;24.534;2022-08-04T02:35:53;99533.77;;;25.59;45.78
73645;BME280;61940;42.136;24.534;2022-08-04T02:38:23;99538.00;;;25.60;45.72
73645;BME280;61940;42.136;24.534;2022-08-04T02:40:46;99539.80;;;25.63;45.61
73645;BME280;61940;42.136;24.534;2022-08-04T02:43:14;99542.61;;;25.63;45.70
73645;BME280;61940;42.136;24.534;2022-08-04T02:45:39;99541.02;;;25.62;45.68
73645;BME280;61940;42.136;24.534;2022-08-04T02:48:05;99540.61;;;25.63;45.53
73645;BME280;61940;42.136;24.534;2022-08-04T02:50:33;99535.20;;;25.61;45.52
73645;BME280;61940;42.136;24.534;2022-08-04T02:52:57;99539.39;;;25.57;45.57
73645;BME280;61940;42.136;24.534;2022-08-04T02:55:24;99538.17;;;25.56;45.50
73645;BME280;61940;42.136;24.534;2022-08-04T02:57:50;99539.98;;;25.56;45.60
73645;BME280;61940;42.136;24.534;2022-08-04T03:00:16;99539.17;;;25.56;45.57
73645;BME280;61940;42.136;24.534;2022-08-04T03:02:49;99532.97;;;25.56;45.62
73645;BME280;61940;42.136;24.534;2022-08-04T03:05:18;99530.56;;;25.57;45.61
73645;BME280;61940;42.136;24.534;2022-08-04T03:13:17;99535.48;;;25.41;46.14
73645;BME280;61940;42.136;24.534;2022-08-04T03:15:57;99537.91;;;25.45;46.06
73645;BME280;61940;42.136;24.534;2022-08-04T03:19:00;99541.52;;;25.47;45.94
73645;BME280;61940;42.136;24.534;2022-08-04T03:23:51;99548.52;;;25.49;45.86
73645;BME280;61940;42.136;24.534;2022-08-04T03:26:23;99544.77;;;25.51;45.79
73645;BME280;61940;42.136;24.534;2022-08-04T03:28:51;99545.78;;;25.56;45.84
73645;BME280;61940;42.136;24.534;2022-08-04T03:31:26;99552.63;;;25.58;45.63
73645;BME280;61940;42.136;24.534;2022-08-04T03:33:53;99550.44;;;25.61;45.57
73645;BME280;61940;42.136;24.534;2022-08-04T03:36:27;99545.63;;;25.64;45.59
73645;BME280;61940;42.136;24.534;2022-08-04T03:39:00;99549.45;;;25.69;45.47
73645;BME280;61940;42.136;24.534;2022-08-04T03:45:05;99548.34;;;25.93;44.87
73645;BME280;61940;42.136;24.534;2022-08-04T03:46:46;99550.26;;;26.18;44.36
73645;BME280;61940;42.136;24.534;2022-08-04T03:51:52;99539.67;;;26.38;43.98
73645;BME280;61940;42.136;24.534;2022-08-04T03:54:43;99539.27;;;26.38;44.00
73645;BME280;61940;42.136;24.534;2022-08-04T03:57:46;99539.66;;;26.36;44.01
73645;BME280;61940;42.136;24.534;2022-08-04T04:00:05;99543.68;;;26.41;43.82
73645;BME280;61940;42.136;24.534;2022-08-04T04:02:39;99552.89;;;26.40;43.85
73645;BME280;61940;42.136;24.534;2022-08-04T04:05:03;99547.07;;;26.33;44.02
73645;BME280;61940;42.136;24.534;2022-08-04T04:07:41;99556.12;;;26.34;44.05
73645;BME280;61940;42.136;24.534;2022-08-04T04:10:12;99550.31;;;26.60;43.51
73645;BME280;61940;42.136;24.534;2022-08-04T04:12:38;99553.55;;;27.04;42.42
73645;BME280;61940;42.136;24.534;2022-08-04T04:15:05;99546.22;;;27.42;41.62
73645;BME280;61940;42.136;24.534;2022-08-04T04:17:36;99550.05;;;27.40;41.59
73645;BME280;61940;42.136;24.534;2022-08-04T04:20:05;99544.00;;;27.56;41.73
73645;BME280;61940;42.136;24.534;2022-08-04T04:22:33;99546.70;;;27.82;40.70
73645;BME280;61940;42.136;24.534;2022-08-04T04:26:05;99551.56;;;27.82;40.89
73645;BME280;61940;42.136;24.534;2022-08-04T04:27:42;99551.48;;;27.47;41.58
73645;BME280;61940;42.136;24.534;2022-08-04T04:30:06;99551.07;;;27.42;41.65
73645;BME280;61940;42.136;24.534;2022-08-04T04:33:12;99554.72;;;27.32;41.87
73645;BME280;61940;42.136;24.534;2022-08-04T04:35:25;99555.72;;;27.23;42.15
73645;BME280;61940;42.136;24.534;2022-08-04T04:37:52;99558.35;;;27.06;42.54
73645;BME280;61940;42.136;24.534;2022-08-04T04:40:21;99558.98;;;26.91;42.89
73645;BME280;61940;42.136;24.534;2022-08-04T04:42:52;99559.14;;;26.73;43.48
73645;BME280;61940;42.136;24.534;2022-08-04T04:45:14;99552.92;;;26.62;43.53
73645;BME280;61940;42.136;24.534;2022-08-04T04:47:41;99563.94;;;26.37;44.29
73645;BME280;61940;42.136;24.534;2022-08-04T04:50:10;99569.56;;;26.40;44.02
73645;BME280;61940;42.136;24.534;2022-08-04T04:52:37;99571.77;;;26.37;44.23
73645;BME280;61940;42.136;24.534;2022-08-04T04:55:03;99568.37;;;26.41;43.93
73645;BME280;61940;42.136;24.534;2022-08-04T04:57:30;99564.16;;;26.41;44.15
73645;BME280;61940;42.136;24.534;2022-08-04T04:59:56;99566.77;;;26.53;43.94
73645;BME280;61940;42.136;24.534;2022-08-04T05:02:25;99570.23;;;26.98;43.10
73645;BME280;61940;42.136;24.534;2022-08-04T05:07:26;99563.66;;;29.27;37.90
73645;BME280;61940;42.136;24.534;2022-08-04T05:10:10;99564.41;;;30.18;36.13
73645;BME280;61940;42.136;24.534;2022-08-04T05:12:34;99568.20;;;30.88;34.65
73645;BME280;61940;42.136;24.534;2022-08-04T05:14:58;99555.48;;;31.44;33.70
73645;BME280;61940;42.136;24.534;2022-08-04T05:17:25;99565.08;;;31.81;32.90
73645;BME280;61940;42.136;24.534;2022-08-04T05:19:58;99567.80;;;32.34;32.06
73645;BME280;61940;42.136;24.534;2022-08-04T05:22:23;99573.57;;;32.47;31.88
73645;BME280;61940;42.136;24.534;2022-08-04T05:24:48;99569.20;;;32.62;31.74
73645;BME280;61940;42.136;24.534;2022-08-04T05:27:16;99571.03;;;33.33;30.63
73645;BME280;61940;42.136;24.534;2022-08-04T05:29:45;99571.41;;;32.71;31.61
73645;BME280;61940;42.136;24.534;2022-08-04T05:32:09;99577.06;;;31.99;32.54
73645;BME280;61940;42.136;24.534;2022-08-04T05:34:38;99570.48;;;31.64;33.19
73645;BME280;61940;42.136;24.534;2022-08-04T05:37:05;99579.27;;;30.90;34.51
73645;BME280;61940;42.136;24.534;2022-08-04T05:39:30;99575.32;;;30.31;35.63
73645;BME280;61940;42.136;24.534;2022-08-04T05:41:56;99579.38;;;29.99;36.24
73645;BME280;61940;42.136;24.534;2022-08-04T05:44:22;99581.88;;;29.58;37.03
73645;BME280;61940;42.136;24.534;2022-08-04T05:46:49;99582.98;;;29.32;37.65
73645;BME280;61940;42.136;24.534;2022-08-04T05:49:15;99579.08;;;29.36;37.61
73645;BME280;61940;42.136;24.534;2022-08-04T05:51:41;99581.06;;;29.19;38.23
73645;BME280;61940;42.136;24.534;2022-08-04T05:54:07;99582.02;;;29.00;38.33
73645;BME280;61940;42.136;24.534;2022-08-04T05:56:33;99580.35;;;28.83;38.59
73645;BME280;61940;42.136;24.534;2022-08-04T05:59:00;99582.49;;;28.65;39.05
73645;BME280;61940;42.136;24.534;2022-08-04T06:01:26;99583.70;;;28.35;39.53
73645;BME280;61940;42.136;24.534;2022-08-04T06:03:52;99583.52;;;28.30;39.59
73645;BME280;61940;42.136;24.534;2022-08-04T06:06:18;99579.21;;;29.42;37.55
73645;BME280;61940;42.136;24.534;2022-08-04T06:08:44;99583.20;;;30.85;34.80
73645;BME280;61940;42.136;24.534;2022-08-04T06:11:11;99581.47;;;31.72;33.09
73645;BME280;61940;42.136;24.534;2022-08-04T06:13:41;99582.25;;;32.76;31.32
73645;BME280;61940;42.136;24.534;2022-08-04T06:16:05;99583.60;;;33.34;30.25
73645;BME280;61940;42.136;24.534;2022-08-04T06:18:31;99578.88;;;34.01;29.18
73645;BME280;61940;42.136;24.534;2022-08-04T06:20:57;99575.27;;;34.53;28.47
73645;BME280;61940;42.136;24.534;2022-08-04T06:23:24;99571.48;;;35.25;27.28
73645;BME280;61940;42.136;24.534;2022-08-04T06:25:50;99568.91;;;35.23;27.22
73645;BME280;61940;42.136;24.534;2022-08-04T06:28:16;99564.67;;;35.68;26.60
73645;BME280;61940;42.136;24.534;2022-08-04T06:30:42;99561.42;;;35.79;26.46
73645;BME280;61940;42.136;24.534;2022-08-04T06:33:09;99556.53;;;35.84;26.40
73645;BME280;61940;42.136;24.534;2022-08-04T06:35:39;99562.23;;;36.16;25.96
73645;BME280;61940;42.136;24.534;2022-08-04T06:38:05;99554.43;;;36.74;25.16
73645;BME280;61940;42.136;24.534;2022-08-04T06:40:31;99560.73;;;37.13;24.61
73645;BME280;61940;42.136;24.534;2022-08-04T06:43:00;99556.92;;;36.87;24.78
73645;BME280;61940;42.136;24.534;2022-08-04T06:45:26;99560.26;;;36.50;25.39
73645;BME280;61940;42.136;24.534;2022-08-04T06:47:53;99563.23;;;37.22;24.40
73645;BME280;61940;42.136;24.534;2022-08-04T06:50:19;99558.93;;;37.42;24.15
73645;BME280;61940;42.136;24.534;2022-08-04T06:52:46;99560.80;;;37.07;24.32
73645;BME280;61940;42.136;24.534;2022-08-04T06:55:12;99560.91;;;37.23;23.83
73645;BME280;61940;42.136;24.534;2022-08-04T06:57:39;99558.48;;;37.33;23.76
73645;BME280;61940;42.136;24.534;2022-08-04T07:00:07;99557.63;;;37.52;23.41
73645;BME280;61940;42.136;24.534;2022-08-04T07:02:38;99551.15;;;37.91;23.20
73645;BME280;61940;42.136;24.534;2022-08-04T07:05:00;99553.11;;;38.15;22.96
73645;BME280;61940;42.136;24.534;2022-08-04T07:07:26;99546.77;;;38.36;22.52
73645;BME280;61940;42.136;24.534;2022-08-04T07:09:52;99546.75;;;38.66;22.20
73645;BME280;61940;42.136;24.534;2022-08-04T07:12:19;99548.21;;;39.06;21.76
73645;BME280;61940;42.136;24.534;2022-08-04T07:14:45;99549.27;;;38.90;22.11
73645;BME280;61940;42.136;24.534;2022-08-04T07:17:12;99543.89;;;38.62;22.29
73645;BME280;61940;42.136;24.534;2022-08-04T07:19:37;99542.22;;;38.79;22.01
73645;BME280;61940;42.136;24.534;2022-08-04T07:22:04;99546.27;;;38.84;22.02
73645;BME280;61940;42.136;24.534;2022-08-04T07:24:30;99547.22;;;38.86;21.88
73645;BME280;61940;42.136;24.534;2022-08-04T07:26:56;99544.71;;;38.53;22.34
73645;BME280;61940;42.136;24.534;2022-08-04T07:29:22;99545.13;;;39.10;21.68
73645;BME280;61940;42.136;24.534;2022-08-04T07:31:49;99550.20;;;38.91;21.76
73645;BME280;61940;42.136;24.534;2022-08-04T07:34:15;99547.73;;;39.15;21.26
73645;BME280;61940;42.136;24.534;2022-08-04T07:36:41;99553.70;;;38.58;21.83
73645;BME280;61940;42.136;24.534;2022-08-04T07:39:07;99544.70;;;38.41;22.39
73645;BME280;61940;42.136;24.534;2022-08-04T07:41:33;99546.84;;;39.40;21.31
73645;BME280;61940;42.136;24.534;2022-08-04T07:44:00;99550.30;;;39.49;21.15
73645;BME280;61940;42.136;24.534;2022-08-04T07:46:26;99551.68;;;39.99;20.72
73645;BME280;61940;42.136;24.534;2022-08-04T07:48:53;99546.30;;;40.11;20.26
73645;BME280;61940;42.136;24.534;2022-08-04T07:51:19;99532.23;;;40.35;20.01
73645;BME280;61940;42.136;24.534;2022-08-04T07:53:45;99538.68;;;40.48;20.29
73645;BME280;61940;42.136;24.534;2022-08-04T07:56:11;99537.22;;;41.04;19.62
73645;BME280;61940;42.136;24.534;2022-08-04T07:58:38;99537.46;;;41.77;18.74
73645;BME280;61940;42.136;24.534;2022-08-04T08:01:04;99534.78;;;41.18;18.86
73645;BME280;61940;42.136;24.534;2022-08-04T08:03:30;99533.09;;;41.18;19.33
73645;BME280;61940;42.136;24.534;2022-08-04T08:05:56;99532.21;;;41.20;19.17
73645;BME280;61940;42.136;24.534;2022-08-04T08:08:23;99529.34;;;41.20;19.11
73645;BME280;61940;42.136;24.534;2022-08-04T08:10:49;99529.21;;;41.01;18.93
73645;BME280;61940;42.136;24.534;2022-08-04T08:13:15;99525.09;;;41.15;19.06
73645;BME280;61940;42.136;24.534;2022-08-04T08:15:44;99526.56;;;40.63;19.90
73645;BME280;61940;42.136;24.534;2022-08-04T08:18:09;99519.48;;;41.26;19.49
73645;BME280;61940;42.136;24.534;2022-08-04T08:20:35;99520.30;;;40.82;19.67
73645;BME280;61940;42.136;24.534;2022-08-04T08:23:02;99522.80;;;40.74;19.73
73645;BME280;61940;42.136;24.534;2022-08-04T08:25:30;99517.01;;;41.26;19.25
73645;BME280;61940;42.136;24.534;2022-08-04T08:27:56;99517.28;;;41.28;18.86
73645;BME280;61940;42.136;24.534;2022-08-04T08:30:23;99519.25;;;41.96;18.12
73645;BME280;61940;42.136;24.534;2022-08-04T08:32:48;99517.64;;;41.69;18.45
73645;BME280;61940;42.136;24.534;2022-08-04T08:35:15;99511.20;;;42.03;18.46
73645;BME280;61940;42.136;24.534;2022-08-04T08:37:44;99520.14;;;42.36;18.22
73645;BME280;61940;42.136;24.534;2022-08-04T08:42:44;99516.25;;;41.75;18.67
73645;BME280;61940;42.136;24.534;2022-08-04T08:47:47;99511.31;;;41.65;18.17
73645;BME280;61940;42.136;24.534;2022-08-04T08:50:16;99513.90;;;41.73;18.15
73645;BME280;61940;42.136;24.534;2022-08-04T08:52:51;99507.97;;;41.36;19.01
73645;BME280;61940;42.136;24.534;2022-08-04T08:55:36;99499.91;;;40.48;19.11
73645;BME280;61940;42.136;24.534;2022-08-04T08:58:05;99508.30;;;40.34;18.96
73645;BME280;61940;42.136;24.534;2022-08-04T09:10:48;99489.52;;;40.33;18.52
73645;BME280;61940;42.136;24.534;2022-08-04T09:13:15;99485.38;;;40.19;18.67
73645;BME280;61940;42.136;24.534;2022-08-04T09:16:51;99482.04;;;40.48;18.35
73645;BME280;61940;42.136;24.534;2022-08-04T09:18:27;99480.27;;;40.26;18.56
73645;BME280;61940;42.136;24.534;2022-08-04T09:20:58;99474.95;;;40.71;18.72
73645;BME280;61940;42.136;24.534;2022-08-04T09:23:41;99479.08;;;40.67;18.13
73645;BME280;61940;42.136;24.534;2022-08-04T09:26:11;99471.98;;;40.31;17.52
73645;BME280;61940;42.136;24.534;2022-08-04T09:28:54;99474.97;;;38.86;18.34
73645;BME280;61940;42.136;24.534;2022-08-04T09:31:19;99476.50;;;38.40;19.19
73645;BME280;61940;42.136;24.534;2022-08-04T09:33:49;99477.61;;;39.06;18.70
73645;BME280;61940;42.136;24.534;2022-08-04T09:36:23;99481.39;;;39.31;18.34
73645;BME280;61940;42.136;24.534;2022-08-04T09:38:50;99473.27;;;39.49;18.70
73645;BME280;61940;42.136;24.534;2022-08-04T09:44:17;99466.62;;;40.06;17.45
73645;BME280;61940;42.136;24.534;2022-08-04T09:46:49;99460.11;;;40.13;17.76
73645;BME280;61940;42.136;24.534;2022-08-04T09:49:15;99465.17;;;39.24;18.67
73645;BME280;61940;42.136;24.534;2022-08-04T09:51:47;99467.94;;;39.18;19.80
73645;BME280;61940;42.136;24.534;2022-08-04T09:54:13;99458.95;;;39.37;19.31
73645;BME280;61940;42.136;24.534;2022-08-04T09:56:38;99463.30;;;38.66;19.62
73645;BME280;61940;42.136;24.534;2022-08-04T09:59:10;99457.75;;;38.62;20.09
73645;BME280;61940;42.136;24.534;2022-08-04T10:01:34;99458.79;;;38.08;19.35
73645;BME280;61940;42.136;24.534;2022-08-04T10:04:02;99460.45;;;37.73;19.92
73645;BME280;61940;42.136;24.534;2022-08-04T10:06:41;99458.60;;;37.25;20.32
73645;BME280;61940;42.136;24.534;2022-08-04T10:10:14;99455.67;;;37.22;20.85
73645;BME280;61940;42.136;24.534;2022-08-04T10:11:52;99452.83;;;36.66;21.24
73645;BME280;61940;42.136;24.534;2022-08-04T10:14:24;99447.06;;;36.07;22.41
73645;BME280;61940;42.136;24.534;2022-08-04T10:16:47;99447.41;;;35.51;23.08
73645;BME280;61940;42.136;24.534;2022-08-04T10:19:18;99439.58;;;35.03;20.86
73645;BME280;61940;42.136;24.534;2022-08-04T10:24:26;99440.64;;;34.37;23.39
73645;BME280;61940;42.136;24.534;2022-08-04T10:26:52;99439.73;;;34.34;23.78
73645;BME280;61940;42.136;24.534;2022-08-04T10:29:50;99437.69;;;34.34;23.25
73645;BME280;61940;42.136;24.534;2022-08-04T10:32:13;99437.11;;;34.52;23.83
73645;BME280;61940;42.136;24.534;2022-08-04T10:34:26;99434.91;;;34.39;23.22
73645;BME280;61940;42.136;24.534;2022-08-04T10:37:00;99433.38;;;34.36;22.91
73645;BME280;61940;42.136;24.534;2022-08-04T10:39:24;99430.42;;;34.21;23.85
73645;BME280;61940;42.136;24.534;2022-08-04T10:41:51;99429.31;;;34.10;23.34
73645;BME280;61940;42.136;24.534;2022-08-04T10:44:19;99428.85;;;33.86;24.33
73645;BME280;61940;42.136;24.534;2022-08-04T10:46:44;99425.80;;;33.87;24.07
73645;BME280;61940;42.136;24.534;2022-08-04T10:49:13;99422.26;;;33.83;23.68
73645;BME280;61940;42.136;24.534;2022-08-04T10:51:39;99418.25;;;33.88;23.57
73645;BME280;61940;42.136;24.534;2022-08-04T10:54:02;99411.06;;;33.97;23.40
73645;BME280;61940;42.136;24.534;2022-08-04T10:56:30;99412.02;;;34.12;22.43
73645;BME280;61940;42.136;24.534;2022-08-04T10:58:56;99410.30;;;34.15;22.31
73645;BME280;61940;42.136;24.534;2022-08-04T11:01:22;99411.77;;;34.13;23.12
73645;BME280;61940;42.136;24.534;2022-08-04T11:03:57;99413.03;;;34.19;22.97
73645;BME280;61940;42.136;24.534;2022-08-04T11:06:25;99413.87;;;34.24;23.14
73645;BME280;61940;42.136;24.534;2022-08-04T11:08:52;99403.48;;;34.19;22.99
73645;BME280;61940;42.136;24.534;2022-08-04T11:11:23;99404.43;;;34.20;22.04
73645;BME280;61940;42.136;24.534;2022-08-04T11:16:23;99392.80;;;34.34;22.40
73645;BME280;61940;42.136;24.534;2022-08-04T11:18:52;99396.27;;;34.57;23.79
73645;BME280;61940;42.136;24.534;2022-08-04T11:21:31;99391.42;;;34.45;22.56
73645;BME280;61940;42.136;24.534;2022-08-04T11:24:02;99382.86;;;34.51;21.96
73645;BME280;61940;42.136;24.534;2022-08-04T11:26:29;99388.05;;;34.24;22.13
73645;BME280;61940;42.136;24.534;2022-08-04T11:29:04;99388.67;;;34.05;23.05
73645;BME280;61940;42.136;24.534;2022-08-04T11:31:31;99384.57;;;33.93;22.89
73645;BME280;61940;42.136;24.534;2022-08-04T11:34:02;99378.36;;;34.03;22.57
73645;BME280;61940;42.136;24.534;2022-08-04T11:39:23;99367.50;;;34.31;21.84
73645;BME280;61940;42.136;24.534;2022-08-04T11:41:47;99368.87;;;34.20;22.08
73645;BME280;61940;42.136;24.534;2022-08-04T11:44:15;99359.67;;;34.40;22.60
73645;BME280;61940;42.136;24.534;2022-08-04T11:46:39;99365.57;;;34.52;22.20
73645;BME280;61940;42.136;24.534;2022-08-04T11:49:11;99358.34;;;34.61;21.80
73645;BME280;61940;42.136;24.534;2022-08-04T11:51:35;99353.99;;;34.91;22.24
73645;BME280;61940;42.136;24.534;2022-08-04T11:54:02;99350.44;;;35.22;20.73
73645;BME280;61940;42.136;24.534;2022-08-04T11:56:28;99355.87;;;35.29;20.01
73645;BME280;61940;42.136;24.534;2022-08-04T11:58:55;99351.00;;;34.84;20.88
73645;BME280;61940;42.136;24.534;2022-08-04T12:01:26;99345.16;;;34.72;20.80
73645;BME280;61940;42.136;24.534;2022-08-04T12:09:01;99334.37;;;34.14;21.27
73645;BME280;61940;42.136;24.534;2022-08-04T12:11:33;99334.72;;;34.16;22.17
73645;BME280;61940;42.136;24.534;2022-08-04T12:14:07;99329.70;;;34.37;22.15
73645;BME280;61940;42.136;24.534;2022-08-04T12:16:26;99327.70;;;34.59;21.48
73645;BME280;61940;42.136;24.534;2022-08-04T12:18:54;99333.31;;;34.67;22.50
73645;BME280;61940;42.136;24.534;2022-08-04T12:21:30;99335.45;;;34.76;20.84
73645;BME280;61940;42.136;24.534;2022-08-04T12:24:01;99330.00;;;34.86;21.18
73645;BME280;61940;42.136;24.534;2022-08-04T12:26:27;99326.33;;;35.03;21.16
73645;BME280;61940;42.136;24.534;2022-08-04T12:28:57;99323.78;;;35.22;21.73
73645;BME280;61940;42.136;24.534;2022-08-04T12:34:08;99326.58;;;35.13;21.48
73645;BME280;61940;42.136;24.534;2022-08-04T12:36:39;99322.91;;;34.90;20.84
73645;BME280;61940;42.136;24.534;2022-08-04T12:39:09;99327.08;;;34.66;20.61
73645;BME280;61940;42.136;24.534;2022-08-04T12:41:37;99326.91;;;34.42;21.25
73645;BME280;61940;42.136;24.534;2022-08-04T12:44:05;99317.92;;;34.37;22.46
73645;BME280;61940;42.136;24.534;2022-08-04T12:46:30;99312.46;;;34.42;22.91
73645;BME280;61940;42.136;24.534;2022-08-04T12:48:59;99318.31;;;34.54;21.88
73645;BME280;61940;42.136;24.534;2022-08-04T12:51:24;99307.13;;;34.60;21.72
73645;BME280;61940;42.136;24.534;2022-08-04T12:53:50;99316.84;;;34.50;23.23
73645;BME280;61940;42.136;24.534;2022-08-04T12:56:22;99305.30;;;34.38;22.14
73645;BME280;61940;42.136;24.534;2022-08-04T12:58:44;99306.61;;;34.52;21.51
73645;BME280;61940;42.136;24.534;2022-08-04T13:01:11;99307.78;;;34.59;21.71
73645;BME280;61940;42.136;24.534;2022-08-04T13:03:38;99303.87;;;34.61;22.15
73645;BME280;61940;42.136;24.534;2022-08-04T13:06:03;99302.31;;;34.65;22.02
73645;BME280;61940;42.136;24.534;2022-08-04T13:08:29;99305.98;;;34.70;21.42
73645;BME280;61940;42.136;24.534;2022-08-04T13:10:56;99296.75;;;34.61;22.03
73645;BME280;61940;42.136;24.534;2022-08-04T13:13:24;99299.07;;;34.64;22.26
73645;BME280;61940;42.136;24.534;2022-08-04T13:15:59;99300.33;;;34.74;22.10
73645;BME280;61940;42.136;24.534;2022-08-04T13:18:21;99299.88;;;34.76;21.72
73645;BME280;61940;42.136;24.534;2022-08-04T13:20:48;99294.83;;;34.80;21.48
73645;BME280;61940;42.136;24.534;2022-08-04T13:23:14;99294.52;;;34.89;20.65
73645;BME280;61940;42.136;24.534;2022-08-04T13:25:42;99299.63;;;34.87;22.04
73645;BME280;61940;42.136;24.534;2022-08-04T13:28:11;99303.37;;;34.91;21.70
73645;BME280;61940;42.136;24.534;2022-08-04T13:30:33;99298.50;;;34.63;21.37
73645;BME280;61940;42.136;24.534;2022-08-04T13:33:00;99297.61;;;34.36;21.66
73645;BME280;61940;42.136;24.534;2022-08-04T13:35:26;99296.95;;;34.26;20.92
73645;BME280;61940;42.136;24.534;2022-08-04T13:37:53;99297.17;;;34.14;21.85
73645;BME280;61940;42.136;24.534;2022-08-04T13:40:20;99296.11;;;34.27;21.14
73645;BME280;61940;42.136;24.534;2022-08-04T13:42:45;99296.52;;;34.45;22.23
73645;BME280;61940;42.136;24.534;2022-08-04T13:45:11;99294.63;;;34.63;21.19
73645;BME280;61940;42.136;24.534;2022-08-04T13:47:38;99290.98;;;34.63;21.90
73645;BME280;61940;42.136;24.534;2022-08-04T13:50:04;99282.57;;;34.66;21.36
73645;BME280;61940;42.136;24.534;2022-08-04T13:52:30;99284.08;;;34.51;22.62
73645;BME280;61940;42.136;24.534;2022-08-04T13:54:56;99280.44;;;34.51;23.40
73645;BME280;61940;42.136;24.534;2022-08-04T13:57:27;99274.67;;;34.42;22.32
73645;BME280;61940;42.136;24.534;2022-08-04T13:59:52;99280.94;;;34.37;22.13
73645;BME280;61940;42.136;24.534;2022-08-04T14:02:24;99277.90;;;34.31;23.17
73645;BME280;61940;42.136;24.534;2022-08-04T14:04:48;99279.32;;;34.31;22.72